Ana Sayfa
METAR-TAF:

METAR-TAF

Havaalanları :

Richmond, Avustralya

Enlem: 20-42-07S, Boylam: 143-06-53E, yükseklik: 206 m

Güncel hava durumu gözlemi

Rapor saat 08:00 UTC de 38 dakika önce yapıldı.
Rüzgar güney/güneydoğudan 8 kt
Sıcaklık 17°C
Nem 32%
Basınç 1018 hPa
Görüş mesafesi 10 km veya daha fazla

METAR: YRMD 180800Z AUTO 15008KT 9999 // NCD 17/M00 Q1018

Saat: 18:38 (08:38 UTC)

Tahmin

Rapor saat 18:43 UTC de 13 saat ve 55 dakika önce yapıldı.
Ayın 17'si saat 20 UTC'den ayın 18'si saat 08 UTC'ye kadar geçerli Tahmin
Rüzgar güney/güneydoğudan 10 kt
Görüş mesafesi 10 km veya daha fazla
1500 m altında bulut yok ve kümülonimbus yok

TAF: YRMD 171843Z 1720/1808 16010KT CAVOK

4.000'den fazla havaalanı için hava durumu gözlemleri ve tahminleri (METAR ve TAF raporları).

Kullanılabilir istasyonlar harita üzerinde sarı ve kırmızı noktalarla gösterilir.

İstasyonun adını görmek için fareyi noktanın üzerinde gezdirin.

Sonrasında hava gözlem ve tahminlerini görmek için tıklayın.

Haritayı değiştirmek için: yaklaştırmak için siyah artı işaretli yeşil düğmeye ve uzaklaştırmak için de eksi işaretli düğmeye hızla tıklayın; bitişik haritalar için yeşil okları kullanın.


METAR-TAF: